Time;durP1;ratioP1;P1;durP2;ratioP2;P2;SDS_P1;SDS_P2;PMS_P1;PMS_P2;Temp;Humidity;BMP_temperature;BMP_pressure;BME280_temperature;BME280_humidity;BME280_pressure;Samples;Min_cycle;Max_cycle;Signal;HPM_P1;HPM_P2
2022/08/27 00:01:28;;;;;;;3.67;1.10;;;;;;;15.71;79.05;100686.53;5017392;28;20040;-73
2022/08/27 00:03:54;;;;;;;4.03;1.23;;;;;;;15.63;79.36;100688.97;5008109;28;20063;-73
2022/08/27 00:06:19;;;;;;;4.53;1.33;;;;;;;15.62;79.25;100684.50;5023339;28;20049;-73
2022/08/27 00:08:45;;;;;;;4.43;1.15;;;;;;;15.64;78.69;100681.38;5003673;28;20101;-73
2022/08/27 00:11:10;;;;;;;4.88;1.27;;;;;;;15.60;79.26;100681.22;5006260;28;20140;-73
2022/08/27 00:13:36;;;;;;;4.65;1.42;;;;;;;15.56;79.51;100685.78;5022634;28;20025;-73
2022/08/27 00:16:05;;;;;;;4.88;1.30;;;;;;;15.57;79.67;100684.66;5016959;28;20044;-73
2022/08/27 00:18:33;;;;;;;6.38;1.38;;;;;;;15.58;79.43;100688.28;5007808;28;20029;-73
2022/08/27 00:20:59;;;;;;;6.90;1.50;;;;;;;15.54;79.02;100692.84;5011918;28;20104;-73
2022/08/27 00:23:24;;;;;;;4.63;1.02;;;;;;;15.50;79.18;100694.66;5001726;28;20033;-73
2022/08/27 00:25:50;;;;;;;2.88;1.15;;;;;;;15.50;79.32;100692.69;5020553;28;20034;-73
2022/08/27 00:28:15;;;;;;;5.18;1.30;;;;;;;15.48;79.47;100689.38;5040047;28;20033;-73
2022/08/27 00:30:41;;;;;;;4.70;1.38;;;;;;;15.49;78.81;100679.00;5037096;28;20475;-73
2022/08/27 00:33:06;;;;;;;5.25;1.13;;;;;;;15.47;79.03;100678.53;5033430;28;20037;-73
2022/08/27 00:35:32;;;;;;;4.57;1.20;;;;;;;15.47;79.20;100670.94;5023518;28;20056;-73
2022/08/27 00:37:58;;;;;;;4.85;1.30;;;;;;;15.46;79.44;100674.06;5036450;28;20037;-73
2022/08/27 00:40:23;;;;;;;2.72;1.30;;;;;;;15.40;78.98;100674.19;5005297;28;20036;-73
2022/08/27 00:42:49;;;;;;;3.53;1.10;;;;;;;15.39;78.65;100678.16;5017363;28;20390;-73
2022/08/27 00:45:17;;;;;;;4.63;1.17;;;;;;;15.35;78.95;100671.56;5029361;28;20065;-73
2022/08/27 00:47:53;;;;;;;4.72;1.60;;;;;;;15.36;80.11;100669.56;5023577;28;20033;-73
2022/08/27 00:50:29;;;;;;;5.55;1.55;;;;;;;15.27;79.26;100666.75;5008637;28;20578;-73
2022/08/27 00:52:57;;;;;;;3.42;1.13;;;;;;;15.27;80.62;100665.94;5004468;28;20037;-73
2022/08/27 00:55:28;;;;;;;6.95;1.20;;;;;;;15.23;79.73;100654.53;5003492;28;20021;-73
2022/08/27 00:58:18;;;;;;;4.53;1.30;;;;;;;15.19;80.54;100654.34;4987185;28;20042;-73
2022/08/27 01:00:44;;;;;;;4.40;1.25;;;;;;;15.21;80.22;100656.84;5054751;28;20033;-74
2022/08/27 01:03:09;;;;;;;6.88;1.60;;;;;;;15.17;80.92;100655.81;5022578;28;20040;-73
2022/08/27 01:05:35;;;;;;;6.40;1.65;;;;;;;15.14;80.42;100648.06;5022981;28;20505;-73
2022/08/27 01:08:08;;;;;;;6.40;1.40;;;;;;;15.12;80.59;100653.97;5006448;28;20025;-74
2022/08/27 01:10:33;;;;;;;4.30;1.40;;;;;;;15.10;81.23;100658.25;5023808;28;20527;-73
2022/08/27 01:12:59;;;;;;;3.90;1.33;;;;;;;15.06;81.45;100654.44;5022916;28;20045;-73
2022/08/27 01:15:26;;;;;;;5.38;1.58;;;;;;;15.04;81.17;100656.72;5032760;28;20159;-73
2022/08/27 01:17:52;;;;;;;6.50;1.73;;;;;;;15.02;81.44;100650.66;5027835;28;20033;-74
2022/08/27 01:20:23;;;;;;;4.43;1.45;;;;;;;15.00;81.54;100645.38;5022772;28;20032;-74
2022/08/27 01:23:04;;;;;;;6.22;1.20;;;;;;;15.01;81.55;100637.81;5005695;28;20059;-73
2022/08/27 01:25:29;;;;;;;6.05;1.63;;;;;;;15.03;81.55;100638.31;5039071;28;20054;-74
2022/08/27 01:27:59;;;;;;;7.78;1.45;;;;;;;14.98;81.62;100640.09;5022643;28;20029;-74
2022/08/27 01:30:24;;;;;;;6.72;1.70;;;;;;;14.97;81.39;100634.81;5021239;28;20029;-73
2022/08/27 01:32:52;;;;;;;6.10;1.50;;;;;;;14.98;81.10;100642.06;5022676;28;20045;-73
2022/08/27 01:35:17;;;;;;;5.70;1.48;;;;;;;14.94;81.28;100644.69;5022435;28;20111;-73
2022/08/27 01:37:43;;;;;;;3.33;1.55;;;;;;;14.94;80.97;100641.88;5018752;28;20033;-73
2022/08/27 01:40:09;;;;;;;4.80;1.60;;;;;;;14.95;82.38;100642.69;5004670;28;20045;-73
2022/08/27 01:42:40;;;;;;;5.13;1.65;;;;;;;14.91;80.95;100631.34;5010115;28;20390;-73
2022/08/27 01:45:11;;;;;;;9.82;1.60;;;;;;;14.91;81.72;100636.94;5022577;28;20037;-73
2022/08/27 01:47:37;;;;;;;3.83;1.60;;;;;;;14.88;81.08;100629.19;5021668;28;20021;-73
2022/08/27 01:50:07;;;;;;;6.53;1.40;;;;;;;14.86;80.85;100625.88;5005678;28;20024;-73
2022/08/27 01:52:33;;;;;;;3.53;1.30;;;;;;;14.82;80.46;100622.09;5016511;28;20036;-73
2022/08/27 01:54:58;;;;;;;4.05;1.35;;;;;;;14.83;80.54;100622.91;5038445;28;20381;-73
2022/08/27 01:57:25;;;;;;;3.08;1.23;;;;;;;14.78;80.48;100617.44;5022112;28;20111;-73
2022/08/27 01:59:50;;;;;;;5.88;1.40;;;;;;;14.72;81.22;100627.94;5020998;28;20031;-73
2022/08/27 02:02:16;;;;;;;4.97;1.40;;;;;;;14.71;80.83;100620.72;5014450;28;20033;-73
2022/08/27 02:04:42;;;;;;;3.03;1.50;;;;;;;14.70;80.45;100619.03;5005592;28;20083;-73
2022/08/27 02:07:07;;;;;;;5.25;1.70;;;;;;;14.67;80.80;100619.69;4988540;28;20139;-73
2022/08/27 02:09:33;;;;;;;4.38;1.55;;;;;;;14.65;80.51;100614.38;5020704;28;20600;-73
2022/08/27 02:11:59;;;;;;;3.70;1.48;;;;;;;14.60;80.39;100614.53;5012704;28;20082;-73
2022/08/27 02:14:25;;;;;;;4.90;1.30;;;;;;;14.58;80.48;100616.00;5017575;28;20086;-73
2022/08/27 02:16:51;;;;;;;3.40;1.33;;;;;;;14.56;80.64;100618.28;5018341;28;20029;-73
2022/08/27 02:19:16;;;;;;;5.43;1.30;;;;;;;14.53;80.20;100609.38;5021559;28;20059;-72
2022/08/27 02:21:41;;;;;;;4.78;1.13;;;;;;;14.48;80.54;100606.69;5002007;28;20122;-73
2022/08/27 02:24:07;;;;;;;3.03;1.50;;;;;;;14.46;80.73;100608.19;5018600;28;20041;-73
2022/08/27 02:26:32;;;;;;;4.80;1.50;;;;;;;14.41;80.36;100606.31;5004924;28;20409;-73
2022/08/27 02:28:58;;;;;;;3.40;1.50;;;;;;;14.38;80.53;100606.13;5005230;28;20033;-73
2022/08/27 02:31:23;;;;;;;6.05;1.67;;;;;;;14.39;80.53;100599.41;5021267;28;20040;-73
2022/08/27 02:33:49;;;;;;;4.38;1.20;;;;;;;14.37;80.58;100599.69;5003776;28;20040;-73
2022/08/27 02:36:14;;;;;;;3.50;1.00;;;;;;;14.36;80.53;100602.84;5029983;28;20029;-73
2022/08/27 02:38:40;;;;;;;3.60;1.20;;;;;;;14.30;80.63;100600.16;5003464;28;20025;-73
2022/08/27 02:41:06;;;;;;;4.00;1.20;;;;;;;14.26;80.78;100601.09;5018312;28;20094;-72
2022/08/27 02:43:31;;;;;;;5.32;1.60;;;;;;;14.27;80.51;100592.41;5042974;28;20044;-73
2022/08/27 02:45:57;;;;;;;3.97;1.23;;;;;;;14.22;80.72;100589.75;5037643;28;20108;-73
2022/08/27 02:48:23;;;;;;;6.60;1.70;;;;;;;14.18;80.34;100593.47;5004785;28;20025;-73
2022/08/27 02:50:49;;;;;;;3.97;1.55;;;;;;;14.15;80.69;100596.91;5005172;28;20038;-73
2022/08/27 02:53:15;;;;;;;4.78;1.77;;;;;;;14.14;81.06;100593.28;5005058;28;20036;-73
2022/08/27 02:55:40;;;;;;;4.45;1.40;;;;;;;14.14;81.06;100598.06;5002174;28;20022;-73
2022/08/27 02:58:06;;;;;;;5.90;1.95;;;;;;;14.12;80.60;100595.56;5005217;28;20036;-73
2022/08/27 03:00:31;;;;;;;3.85;1.65;;;;;;;14.11;80.87;100604.28;4998819;28;20025;-73
2022/08/27 03:02:57;;;;;;;5.90;1.48;;;;;;;14.08;81.13;100598.16;5038219;28;20036;-73
2022/08/27 03:05:22;;;;;;;9.40;1.55;;;;;;;14.05;80.91;100597.97;5020941;28;20032;-73
2022/08/27 03:07:48;;;;;;;5.55;1.45;;;;;;;13.98;80.73;100606.78;5021301;28;20541;-73
2022/08/27 03:10:15;;;;;;;4.00;1.40;;;;;;;13.98;80.77;100609.56;5037824;28;20037;-73
2022/08/27 03:12:40;;;;;;;4.95;1.40;;;;;;;13.96;81.26;100611.06;5037813;28;20036;-73
2022/08/27 03:15:08;;;;;;;6.18;1.40;;;;;;;13.93;81.49;100600.47;5018781;28;20029;-73
2022/08/27 03:20:17;;;;;;;6.03;1.77;;;;;;;13.92;81.61;100596.06;5043308;28;20040;-73
2022/08/27 03:22:43;;;;;;;6.05;1.70;;;;;;;13.85;81.49;100599.28;5017979;28;20064;-73
2022/08/27 03:25:09;;;;;;;3.78;1.50;;;;;;;13.84;82.22;100597.63;5024891;28;20041;-73
2022/08/27 03:27:35;;;;;;;4.30;1.48;;;;;;;13.79;82.23;100606.09;5024611;28;20083;-73
2022/08/27 03:30:02;;;;;;;6.40;1.40;;;;;;;13.77;82.00;100598.06;5025200;28;20040;-73
2022/08/27 03:32:28;;;;;;;8.07;2.35;;;;;;;13.73;84.46;100597.00;5017177;28;20033;-73
2022/08/27 03:34:57;;;;;;;5.47;1.52;;;;;;;13.71;82.59;100593.72;5041473;28;20036;-73
2022/08/27 03:37:22;;;;;;;5.70;2.15;;;;;;;13.73;82.95;100590.63;5024372;28;20043;-73
2022/08/27 03:39:47;;;;;;;4.90;1.85;;;;;;;13.68;82.88;100599.09;5059206;28;20037;-72
2022/08/27 03:42:13;;;;;;;5.38;1.80;;;;;;;13.62;82.71;100593.66;5016802;28;20037;-73
2022/08/27 03:44:39;;;;;;;9.15;2.10;;;;;;;13.61;82.39;100600.34;5020275;28;20500;-73
2022/08/27 03:47:04;;;;;;;6.47;1.70;;;;;;;13.64;82.79;100599.72;5019944;28;20025;-73
2022/08/27 03:49:30;;;;;;;4.20;1.55;;;;;;;13.59;82.95;100597.03;5008379;28;20037;-73
2022/08/27 03:51:55;;;;;;;6.97;2.03;;;;;;;13.60;82.78;100601.50;5058710;28;20036;-73
2022/08/27 03:54:21;;;;;;;4.88;1.70;;;;;;;13.59;82.76;100597.03;5024511;28;20036;-73
2022/08/27 03:56:46;;;;;;;3.78;1.30;;;;;;;13.54;82.28;100587.94;5024482;28;20037;-73
2022/08/27 03:59:14;;;;;;;8.70;1.80;;;;;;;13.53;82.43;100587.13;5027178;28;20078;-73
2022/08/27 04:01:39;;;;;;;4.57;1.52;;;;;;;13.50;82.51;100593.34;5008577;28;20055;-73
2022/08/27 04:04:05;;;;;;;6.75;1.83;;;;;;;13.50;82.56;100586.94;5005059;28;20037;-73
2022/08/27 04:06:33;;;;;;;7.75;1.75;;;;;;;13.44;82.81;100589.00;5023724;28;20032;-73
2022/08/27 04:08:59;;;;;;;5.88;1.88;;;;;;;13.41;82.30;100586.84;5024482;28;20055;-73
2022/08/27 04:11:24;;;;;;;11.60;1.90;;;;;;;13.38;83.07;100590.25;5022981;28;20041;-73
2022/08/27 04:13:50;;;;;;;4.95;1.77;;;;;;;13.38;82.75;100584.69;5024530;28;20040;-73
2022/08/27 04:16:15;;;;;;;5.68;1.75;;;;;;;13.37;83.01;100585.81;5005505;28;20473;-73
2022/08/27 04:18:41;;;;;;;7.18;1.45;;;;;;;13.36;82.55;100587.78;5040547;28;20060;-73
2022/08/27 04:21:08;;;;;;;3.00;1.48;;;;;;;13.34;82.80;100589.22;5023787;28;20068;-73
2022/08/27 04:23:33;;;;;;;7.18;2.42;;;;;;;13.35;83.15;100579.72;5024117;28;20489;-73
2022/08/27 04:25:59;;;;;;;4.28;2.03;;;;;;;13.28;83.64;100584.88;5023460;28;20167;-73
2022/08/27 04:28:25;;;;;;;3.83;2.10;;;;;;;13.29;83.86;100592.94;5040771;28;20025;-73
2022/08/27 04:30:50;;;;;;;6.20;2.60;;;;;;;13.27;83.65;100581.28;5023525;28;20025;-73
2022/08/27 04:33:16;;;;;;;5.13;2.40;;;;;;;13.25;83.11;100583.50;5007281;28;20444;-73
2022/08/27 04:35:41;;;;;;;7.70;2.03;;;;;;;13.24;83.64;100572.69;5023747;28;20040;-73
2022/08/27 04:38:06;;;;;;;7.50;2.70;;;;;;;13.23;84.33;100565.44;5014047;28;20041;-73
2022/08/27 04:43:16;;;;;;;5.95;1.95;;;;;;;13.22;83.62;100566.56;5026224;28;20052;-73
2022/08/27 04:45:43;;;;;;;4.07;2.10;;;;;;;13.15;83.62;100573.41;5057323;28;20029;-73
2022/08/27 04:48:09;;;;;;;5.30;1.83;;;;;;;13.19;83.57;100571.63;5039691;28;20035;-74
2022/08/27 04:50:41;;;;;;;6.93;2.17;;;;;;;13.12;83.71;100571.25;5007012;28;20028;-73
2022/08/27 04:53:07;;;;;;;8.73;1.90;;;;;;;13.11;83.58;100572.34;5023800;28;20025;-73
2022/08/27 04:55:33;;;;;;;6.88;2.20;;;;;;;13.10;84.16;100567.91;5006512;28;20107;-73
2022/08/27 04:57:58;;;;;;;4.05;1.75;;;;;;;13.09;83.93;100563.50;5023380;28;20044;-73
2022/08/27 05:00:24;;;;;;;4.72;1.95;;;;;;;13.06;84.31;100566.88;5038590;28;20362;-73
2022/08/27 05:02:49;;;;;;;5.80;2.05;;;;;;;13.05;84.54;100559.66;5007051;28;20033;-73
2022/08/27 05:05:15;;;;;;;7.15;2.40;;;;;;;13.02;84.40;100565.84;5039796;28;20029;-73
2022/08/27 05:07:42;;;;;;;7.07;2.42;;;;;;;13.05;84.79;100564.41;5006440;28;20167;-73
2022/08/27 05:10:08;;;;;;;7.03;2.10;;;;;;;13.04;84.53;100569.16;5020019;28;20386;-73
2022/08/27 05:12:34;;;;;;;5.60;2.15;;;;;;;12.99;84.30;100565.66;5006694;28;20028;-73
2022/08/27 05:14:59;;;;;;;4.20;2.67;;;;;;;12.94;84.85;100566.56;5021369;28;20044;-73
2022/08/27 05:17:25;;;;;;;8.27;2.70;;;;;;;12.90;84.89;100569.16;5005783;28;20155;-73
2022/08/27 05:19:50;;;;;;;7.43;2.70;;;;;;;12.89;85.73;100572.25;5039442;28;20052;-73
2022/08/27 05:22:15;;;;;;;6.80;3.30;;;;;;;12.97;85.90;100568.75;5001763;28;20046;-73
2022/08/27 05:24:41;;;;;;;7.60;2.92;;;;;;;12.87;87.70;100575.34;5000073;28;20104;-73
2022/08/27 05:27:06;;;;;;;6.13;2.80;;;;;;;12.81;87.00;100582.13;5018172;28;20030;-73
2022/08/27 05:29:32;;;;;;;8.32;3.55;;;;;;;12.83;88.94;100587.41;5019273;28;20037;-73
2022/08/27 05:31:57;;;;;;;7.65;2.92;;;;;;;12.80;88.31;100582.44;5019399;28;20033;-73
2022/08/27 05:34:23;;;;;;;7.85;3.35;;;;;;;12.77;90.16;100586.69;5025420;28;20033;-73
2022/08/27 05:36:48;;;;;;;9.32;3.67;;;;;;;12.78;89.96;100582.75;5030620;28;20087;-73
2022/08/27 05:39:14;;;;;;;7.72;4.28;;;;;;;12.73;93.29;100580.06;5001863;28;20034;-73
2022/08/27 05:41:39;;;;;;;11.32;4.00;;;;;;;12.83;93.17;100579.06;5018926;28;20041;-73
2022/08/27 05:44:08;;;;;;;8.93;4.30;;;;;;;12.85;95.58;100582.38;5007061;28;20034;-73
2022/08/27 05:46:35;;;;;;;16.10;5.70;;;;;;;12.85;98.89;100588.75;5003218;28;20025;-73
2022/08/27 05:49:00;;;;;;;11.38;4.85;;;;;;;12.86;96.63;100584.00;5000950;28;20088;-73
2022/08/27 05:51:31;;;;;;;13.65;5.78;;;;;;;12.88;99.91;100581.75;5019284;28;20037;-73
2022/08/27 05:54:01;;;;;;;19.23;9.43;;;;;;;12.86;100.00;100584.00;5015969;28;20386;-73
2022/08/27 05:56:28;;;;;;;22.10;8.45;;;;;;;12.86;100.00;100590.41;5024133;28;20108;-73
2022/08/27 06:01:40;;;;;;;18.98;7.78;;;;;;;12.96;100.00;100594.97;5010968;28;20057;-73
2022/08/27 06:04:06;;;;;;;22.90;9.95;;;;;;;13.01;100.00;100592.09;5019033;28;20037;-73
2022/08/27 06:06:35;;;;;;;17.90;8.15;;;;;;;13.06;100.00;100594.75;5034765;28;20032;-73
2022/08/27 06:09:01;;;;;;;20.90;9.07;;;;;;;13.12;100.00;100592.69;5018712;28;20493;-73
2022/08/27 06:11:27;;;;;;;26.52;12.75;;;;;;;13.12;100.00;100601.91;4996788;28;20033;-73
2022/08/27 06:13:52;;;;;;;16.65;8.27;;;;;;;13.17;100.00;100601.78;4998089;28;20029;-73
2022/08/27 06:16:18;;;;;;;23.35;11.35;;;;;;;13.26;100.00;100615.03;5017597;28;20444;-73
2022/08/27 06:18:45;;;;;;;27.45;13.25;;;;;;;13.28;100.00;100623.94;5018648;28;20036;-73
2022/08/27 06:21:11;;;;;;;28.70;14.43;;;;;;;13.33;100.00;100626.63;5021304;28;20040;-73
2022/08/27 06:23:36;;;;;;;32.15;14.95;;;;;;;13.34;100.00;100611.53;5016729;28;20064;-73
2022/08/27 06:26:05;;;;;;;29.35;14.63;;;;;;;13.39;100.00;100608.63;5029099;28;20045;-73
2022/08/27 06:28:30;;;;;;;31.25;15.68;;;;;;;13.41;100.00;100609.97;5006115;28;20032;-73
2022/08/27 06:31:03;;;;;;;32.35;15.98;;;;;;;13.47;100.00;100609.88;5018486;28;20030;-73
2022/08/27 06:33:29;;;;;;;32.55;16.30;;;;;;;13.46;100.00;100613.81;5001708;28;20041;-73
2022/08/27 06:36:00;;;;;;;30.27;14.55;;;;;;;13.49;100.00;100604.81;5027911;28;20032;-73
2022/08/27 06:38:26;;;;;;;38.05;17.55;;;;;;;13.53;100.00;100605.84;5022042;28;20029;-73
2022/08/27 06:40:52;;;;;;;40.50;18.58;;;;;;;13.54;100.00;100605.53;5038270;28;20063;-73
2022/08/27 06:43:18;;;;;;;32.70;16.83;;;;;;;13.57;100.00;100612.47;5021779;28;20024;-73
2022/08/27 06:45:43;;;;;;;33.00;16.63;;;;;;;13.59;100.00;100611.00;5010349;28;20059;-73
2022/08/27 06:48:09;;;;;;;40.05;18.67;;;;;;;13.61;100.00;100613.47;5021618;28;20060;-73
2022/08/27 06:50:39;;;;;;;41.75;19.33;;;;;;;13.61;100.00;100611.50;5017330;28;20040;-73
2022/08/27 06:53:04;;;;;;;35.38;17.55;;;;;;;13.71;100.00;100618.84;5000115;28;20025;-73
2022/08/27 06:55:30;;;;;;;45.60;21.55;;;;;;;13.70;100.00;100614.38;4988763;28;20040;-73
2022/08/27 06:57:55;;;;;;;43.67;20.65;;;;;;;13.72;100.00;100620.50;5021169;28;20033;-73
2022/08/27 07:00:21;;;;;;;42.90;20.75;;;;;;;13.77;100.00;100617.59;5035714;28;20029;-73
2022/08/27 07:02:46;;;;;;;39.85;19.73;;;;;;;13.82;100.00;100620.28;5022321;28;20033;-73
2022/08/27 07:05:12;;;;;;;45.33;20.48;;;;;;;13.87;100.00;100624.91;5021305;28;20033;-73
2022/08/27 07:07:37;;;;;;;40.53;19.17;;;;;;;13.91;100.00;100625.13;5021134;28;20029;-73
2022/08/27 07:10:03;;;;;;;40.10;19.25;;;;;;;13.96;100.00;100634.22;5019969;28;20083;-73
2022/08/27 07:12:28;;;;;;;36.15;16.67;;;;;;;14.01;100.00;100625.72;5021258;28;20025;-73
2022/08/27 07:14:54;;;;;;;38.60;19.27;;;;;;;14.04;100.00;100625.09;5020778;28;20033;-73
2022/08/27 07:17:19;;;;;;;43.38;20.33;;;;;;;14.06;100.00;100621.97;5011234;28;20617;-73
2022/08/27 07:19:45;;;;;;;40.10;19.83;;;;;;;14.14;100.00;100634.38;5035048;28;20083;-73
2022/08/27 07:22:11;;;;;;;39.80;18.33;;;;;;;14.18;100.00;100627.00;4992312;28;20048;-73
2022/08/27 07:24:37;;;;;;;43.13;19.17;;;;;;;14.22;100.00;100622.44;5021043;28;20040;-73
2022/08/27 07:27:03;;;;;;;37.95;18.67;;;;;;;14.28;100.00;100612.78;5033806;28;20489;-73
2022/08/27 07:29:28;;;;;;;40.53;19.05;;;;;;;14.36;100.00;100617.63;5016712;28;20032;-74
2022/08/27 07:31:54;;;;;;;37.67;18.05;;;;;;;14.42;100.00;100616.34;5020291;28;20029;-73
2022/08/27 07:34:19;;;;;;;38.72;18.27;;;;;;;14.51;100.00;100611.66;5037206;28;20036;-73
2022/08/27 07:36:44;;;;;;;41.97;20.20;;;;;;;14.59;100.00;100618.47;5011259;28;20486;-72
2022/08/27 07:39:12;;;;;;;36.92;16.55;;;;;;;14.67;100.00;100617.69;5010819;28;20049;-73
2022/08/27 07:44:25;;;;;;;38.00;18.55;;;;;;;14.87;100.00;100613.53;5020470;28;20025;-73
2022/08/27 07:46:51;;;;;;;32.28;16.45;;;;;;;15.00;100.00;100622.19;5005283;28;20101;-73
2022/08/27 07:49:17;;;;;;;34.28;16.73;;;;;;;15.09;100.00;100623.03;5019441;28;20029;-73
2022/08/27 07:51:42;;;;;;;40.15;18.48;;;;;;;15.19;100.00;100625.56;4988168;28;20118;-73
2022/08/27 07:54:07;;;;;;;33.97;17.08;;;;;;;15.28;100.00;100623.63;5020541;28;20037;-73
2022/08/27 07:56:33;;;;;;;35.60;17.52;;;;;;;15.41;100.00;100622.69;5036985;28;20044;-73
2022/08/27 07:58:58;;;;;;;34.17;16.52;;;;;;;15.53;100.00;100624.84;5010575;28;20017;-73
2022/08/27 08:01:24;;;;;;;38.10;17.23;;;;;;;15.67;100.00;100630.34;5004122;28;20025;-73
2022/08/27 08:03:49;;;;;;;37.33;17.83;;;;;;;15.78;100.00;100626.09;5037420;28;20029;-74
2022/08/27 08:06:15;;;;;;;33.17;16.50;;;;;;;15.91;100.00;100624.31;5023106;28;20029;-74
2022/08/27 08:08:40;;;;;;;34.75;17.65;;;;;;;16.00;100.00;100627.94;5020966;28;20086;-74
2022/08/27 08:11:08;;;;;;;31.45;16.73;;;;;;;16.13;100.00;100623.38;4979356;28;20044;-74
2022/08/27 08:13:33;;;;;;;34.17;16.20;;;;;;;16.27;100.00;100632.44;4998629;28;20478;-74
2022/08/27 08:15:59;;;;;;;36.33;17.10;;;;;;;16.43;100.00;100620.69;5001116;28;20083;-74
2022/08/27 08:18:25;;;;;;;32.90;16.13;;;;;;;16.59;100.00;100621.84;5024247;28;20087;-74
2022/08/27 08:20:51;;;;;;;29.70;15.32;;;;;;;16.78;98.99;100623.50;5024031;28;20120;-74
2022/08/27 08:23:16;;;;;;;32.05;16.20;;;;;;;17.00;98.13;100630.88;5022146;28;20044;-74
2022/08/27 08:25:42;;;;;;;31.35;16.02;;;;;;;17.18;97.80;100616.44;5023431;28;20506;-73
2022/08/27 08:28:08;;;;;;;29.90;16.35;;;;;;;17.41;96.71;100617.00;5023730;28;20044;-73
2022/08/27 08:30:33;;;;;;;30.55;16.27;;;;;;;17.67;95.75;100615.22;5023849;28;20481;-74
2022/08/27 08:32:59;;;;;;;31.50;16.95;;;;;;;17.88;94.46;100610.47;5040528;28;20044;-71
2022/08/27 08:35:24;;;;;;;33.00;16.40;;;;;;;18.07;93.37;100619.25;5039945;28;20032;-73
2022/08/27 08:37:50;;;;;;;30.02;15.90;;;;;;;18.27;91.74;100612.00;5023300;28;20052;-74
2022/08/27 08:40:24;;;;;;;29.80;16.55;;;;;;;18.48;90.73;100616.78;4987323;28;20082;-73
2022/08/27 08:42:52;;;;;;;25.08;14.35;;;;;;;18.71;89.08;100608.78;5017334;28;20033;-72
2022/08/27 08:45:22;;;;;;;27.90;15.48;;;;;;;18.89;89.10;100609.47;5014332;28;20029;-73
2022/08/27 08:47:50;;;;;;;27.15;15.35;;;;;;;19.11;87.83;100614.66;5023625;28;20034;-72
2022/08/27 08:50:18;;;;;;;26.90;15.38;;;;;;;19.26;86.43;100618.78;4993138;28;20029;-72
2022/08/27 08:53:02;;;;;;;25.38;14.93;;;;;;;19.44;85.69;100619.38;4990830;28;20059;-73
2022/08/27 08:55:36;;;;;;;23.83;13.48;;;;;;;19.68;85.14;100610.13;5001480;28;20533;-73
2022/08/27 08:58:07;;;;;;;21.75;13.18;;;;;;;19.88;83.37;100613.97;5037693;28;20037;-73
2022/08/27 09:00:33;;;;;;;18.23;11.55;;;;;;;20.16;82.58;100616.03;5051689;28;20096;-73
2022/08/27 09:02:59;;;;;;;20.75;12.10;;;;;;;20.39;82.53;100616.31;5006975;28;20393;-73
2022/08/27 09:05:24;;;;;;;21.75;12.15;;;;;;;20.54;81.05;100612.78;5021049;28;20041;-73
2022/08/27 09:07:56;;;;;;;20.17;13.10;;;;;;;20.65;79.33;100622.38;5021644;28;20033;-73
2022/08/27 09:10:26;;;;;;;18.45;11.63;;;;;;;20.83;78.68;100614.38;5037196;28;20037;-73
2022/08/27 09:12:53;;;;;;;23.65;13.20;;;;;;;20.89;76.64;100620.59;5023261;28;20037;-73
2022/08/27 09:15:19;;;;;;;20.88;13.30;;;;;;;20.98;76.35;100612.78;5020526;28;20039;-73
2022/08/27 09:17:46;;;;;;;20.30;12.18;;;;;;;21.16;76.13;100613.25;5001750;28;20029;-73
2022/08/27 09:20:12;;;;;;;16.88;10.82;;;;;;;21.36;74.93;100611.34;5014737;28;20087;-73
2022/08/27 09:22:49;;;;;;;15.30;10.45;;;;;;;21.56;75.15;100610.28;5006241;28;20049;-73
2022/08/27 09:25:19;;;;;;;18.92;11.82;;;;;;;21.75;74.40;100608.69;5057097;28;20039;-72
2022/08/27 09:27:45;;;;;;;14.00;8.88;;;;;;;21.95;74.03;100610.34;5015769;28;20033;-72
2022/08/27 09:30:19;;;;;;;13.90;9.98;;;;;;;22.09;73.47;100610.69;5022251;28;20040;-73
2022/08/27 09:32:50;;;;;;;16.85;9.52;;;;;;;22.30;71.94;100603.91;5006952;28;20025;-73
2022/08/27 09:35:16;;;;;;;13.57;9.93;;;;;;;22.43;71.68;100608.22;5023151;28;20032;-71
2022/08/27 09:37:44;;;;;;;17.15;10.32;;;;;;;22.58;69.39;100602.84;5038566;28;20401;-71
2022/08/27 09:40:10;;;;;;;14.38;10.32;;;;;;;22.68;68.50;100605.91;5023997;28;20089;-71
2022/08/27 09:43:14;;;;;;;13.35;7.85;;;;;;;22.86;65.64;100606.22;5051854;28;20457;-71
2022/08/27 09:45:49;;;;;;;8.88;6.22;;;;;;;23.09;66.35;100599.78;4992178;28;20102;-71
2022/08/27 09:48:28;;;;;;;8.23;5.72;;;;;;;23.33;64.70;100599.41;4994750;28;20593;-71
2022/08/27 09:50:58;;;;;;;9.68;5.78;;;;;;;23.55;64.42;100599.78;4989559;28;20034;-71
2022/08/27 09:53:29;;;;;;;9.93;6.55;;;;;;;23.65;63.05;100582.09;4994951;28;20048;-71
2022/08/27 09:56:02;;;;;;;10.65;6.60;;;;;;;23.70;60.74;100589.47;4978029;28;20402;-71
2022/08/27 09:58:43;;;;;;;11.73;6.32;;;;;;;23.82;59.56;100589.28;4977522;28;20043;-71
2022/08/27 10:01:25;;;;;;;7.82;5.10;;;;;;;24.00;60.05;100586.72;4994563;28;20658;-71
2022/08/27 10:04:03;;;;;;;10.18;5.50;;;;;;;24.10;58.12;100588.88;4994312;28;20044;-71
2022/08/27 10:06:29;;;;;;;7.65;4.53;;;;;;;24.22;56.36;100594.31;4976917;28;20046;-71
2022/08/27 10:09:15;;;;;;;7.15;5.38;;;;;;;24.34;55.98;100583.91;4978170;28;20080;-71
2022/08/27 10:11:56;;;;;;;7.47;4.63;;;;;;;24.39;55.74;100578.72;4978057;28;20034;-71
2022/08/27 10:14:26;;;;;;;5.68;3.72;;;;;;;24.48;53.95;100578.44;4978751;28;20038;-71
2022/08/27 10:17:04;;;;;;;6.15;3.90;;;;;;;24.62;54.67;100583.47;4991244;28;20126;-71
2022/08/27 10:19:48;;;;;;;6.43;3.55;;;;;;;24.64;49.00;100570.53;5022057;28;20434;-71
2022/08/27 10:22:23;;;;;;;5.85;3.67;;;;;;;24.69;51.20;100572.19;5021500;28;20053;-71
2022/08/27 10:25:27;;;;;;;5.55;3.55;;;;;;;24.83;50.88;100574.38;5055961;28;20405;-71
2022/08/27 10:27:58;;;;;;;7.25;3.35;;;;;;;25.04;52.71;100576.59;5050806;28;20028;-71
2022/08/27 10:30:55;;;;;;;5.20;2.85;;;;;;;25.09;47.94;100565.69;5038277;28;20136;-71
2022/08/27 10:33:32;;;;;;;7.13;3.85;;;;;;;24.97;46.67;100566.81;5037665;28;20044;-71
2022/08/27 10:36:05;;;;;;;5.10;2.90;;;;;;;25.13;46.50;100566.56;5017519;28;20033;-71
2022/08/27 10:38:44;;;;;;;3.80;2.70;;;;;;;25.26;47.58;100563.44;5027859;28;20059;-71
2022/08/27 10:41:16;;;;;;;5.97;3.60;;;;;;;25.40;47.72;100555.03;5052113;28;20115;-71
2022/08/27 10:44:09;;;;;;;5.57;3.80;;;;;;;25.49;47.75;100566.03;5021387;28;20036;-71
2022/08/27 10:46:52;;;;;;;5.85;3.33;;;;;;;25.64;48.46;100548.69;5039562;28;20116;-71
2022/08/27 10:49:43;;;;;;;5.18;3.22;;;;;;;25.80;49.12;100547.59;5032258;28;20108;-71
2022/08/27 10:52:22;;;;;;;4.70;3.03;;;;;;;25.86;47.11;100540.34;5035093;28;20037;-71
2022/08/27 10:55:11;;;;;;;4.72;3.42;;;;;;;25.84;46.95;100548.44;5021579;28;20024;-71
2022/08/27 10:58:04;;;;;;;3.78;2.78;;;;;;;26.02;46.22;100545.69;5041118;28;20088;-74
2022/08/27 11:00:52;;;;;;;5.18;3.08;;;;;;;26.13;47.26;100552.25;5053203;28;20626;-74
2022/08/27 11:03:25;;;;;;;5.38;3.28;;;;;;;26.14;45.08;100553.06;5015007;28;20134;-71
2022/08/27 11:05:50;;;;;;;4.10;2.75;;;;;;;26.19;44.43;100547.81;5021504;28;20033;-71
2022/08/27 11:08:36;;;;;;;5.68;2.70;;;;;;;26.34;45.18;100539.34;5050299;28;20029;-71
2022/08/27 11:11:06;;;;;;;3.75;3.13;;;;;;;26.43;44.54;100548.31;5039747;28;20064;-71
2022/08/27 11:13:39;;;;;;;5.85;3.35;;;;;;;26.48;44.22;100540.19;5046983;28;20032;-71
2022/08/27 11:16:17;;;;;;;3.80;2.63;;;;;;;26.58;43.34;100538.63;5015317;28;20033;-71
2022/08/27 11:19:00;;;;;;;5.88;2.53;;;;;;;26.63;43.77;100541.06;5037737;28;20037;-71
2022/08/27 11:21:33;;;;;;;5.72;2.55;;;;;;;26.75;42.10;100539.88;5036769;28;20052;-71
2022/08/27 11:24:20;;;;;;;4.07;2.38;;;;;;;26.70;41.65;100534.56;5037743;28;20409;-71
2022/08/27 11:26:46;;;;;;;4.25;2.35;;;;;;;26.83;41.12;100532.97;5038854;28;20025;-71
2022/08/27 11:29:40;;;;;;;4.90;2.50;;;;;;;27.01;42.16;100532.19;5037228;28;20059;-71
2022/08/27 11:32:10;;;;;;;3.97;2.42;;;;;;;27.04;40.95;100534.22;5025572;28;20397;-71
2022/08/27 11:34:40;;;;;;;4.00;1.95;;;;;;;27.04;40.55;100531.34;5037523;28;20397;-71
2022/08/27 11:37:21;;;;;;;3.35;1.65;;;;;;;26.98;37.38;100519.56;5013772;28;20029;-71